createdAt,value
2023-04-02T00:01:37.968Z,97081.22
2023-04-02T00:04:41.384Z,97077.34
2023-04-02T00:07:49.034Z,97085.06
2023-04-02T00:10:54.445Z,97084.75
2023-04-02T00:14:02.830Z,97076.28
2023-04-02T00:17:07.834Z,97080.56
2023-04-02T00:20:20.177Z,97077.97
2023-04-02T00:23:24.121Z,97079.38
2023-04-02T00:26:33.112Z,97079.22
2023-04-02T00:29:36.531Z,97075.66
2023-04-02T00:32:42.232Z,97084.06
2023-04-02T00:35:46.024Z,97075.63
2023-04-02T00:38:50.176Z,97085.03
2023-04-02T00:42:05.212Z,97077.19
2023-04-02T00:45:21.807Z,97080.69
2023-04-02T00:48:41.089Z,97080.56
2023-04-02T00:51:51.509Z,97087.25
2023-04-02T00:55:03.867Z,97084.22
2023-04-02T00:58:20.315Z,97080.28
2023-04-02T01:01:27.340Z,97076.03
2023-04-02T01:04:35.251Z,97073.94
2023-04-02T01:07:55.313Z,97069.53
2023-04-02T01:11:05.700Z,97069.72
2023-04-02T01:14:19.210Z,97072.19
2023-04-02T01:17:42.920Z,97063.38
2023-04-02T01:21:08.624Z,97065.88
2023-04-02T01:24:14.366Z,97073.13
2023-04-02T01:27:22.486Z,97069.19
2023-04-02T01:30:28.305Z,97071.81
2023-04-02T01:33:35.002Z,97077.78
2023-04-02T01:36:48.885Z,97070.19
2023-04-02T01:40:07.490Z,97074.03
2023-04-02T01:43:20.464Z,97083.72
2023-04-02T01:46:31.931Z,97079.97
2023-04-02T01:49:36.240Z,97084.06
2023-04-02T01:52:42.273Z,97079.09
2023-04-02T01:55:52.689Z,97081.69
2023-04-02T01:58:58.277Z,97086.53
2023-04-02T02:02:09.205Z,97088.84
2023-04-02T02:05:17.195Z,97084.22
2023-04-02T02:08:38.519Z,97097.09
2023-04-02T02:11:43.871Z,97095.91
2023-04-02T02:14:49.853Z,97094.34
2023-04-02T02:18:00.317Z,97097.25
2023-04-02T02:21:08.938Z,97098.06
2023-04-02T02:24:21.397Z,97099.00
2023-04-02T02:27:48.233Z,97095.00
2023-04-02T02:30:55.155Z,97095.09
2023-04-02T02:34:04.932Z,97103.44
2023-04-02T02:37:16.375Z,97098.78
2023-04-02T02:40:25.448Z,97098.66
2023-04-02T02:43:29.748Z,97102.53
2023-04-02T02:46:35.057Z,97113.56
2023-04-02T02:49:46.780Z,97102.63
2023-04-02T02:52:54.858Z,97107.84
2023-04-02T02:56:01.771Z,97109.63
2023-04-02T02:59:16.050Z,97109.25
2023-04-02T03:02:20.958Z,97124.78
2023-04-02T03:05:29.351Z,97120.53
2023-04-02T03:08:43.281Z,97119.44
2023-04-02T03:11:55.736Z,97116.94
2023-04-02T03:15:07.684Z,97120.50
2023-04-02T03:18:19.287Z,97122.41
2023-04-02T03:21:29.431Z,97126.53
2023-04-02T03:24:39.382Z,97130.16
2023-04-02T03:27:47.802Z,97137.16
2023-04-02T03:30:56.535Z,97140.56
2023-04-02T03:34:02.645Z,97133.66
2023-04-02T03:37:16.039Z,97134.78
2023-04-02T03:40:23.687Z,97134.50
2023-04-02T03:43:33.522Z,97131.66
2023-04-02T03:46:42.618Z,97132.47
2023-04-02T03:49:50.949Z,97144.56
2023-04-02T03:52:58.536Z,97142.47
2023-04-02T03:56:03.991Z,97145.72
2023-04-02T03:59:16.998Z,97145.09
2023-04-02T04:02:36.168Z,97152.84
2023-04-02T04:05:48.421Z,97155.47
2023-04-02T04:08:57.847Z,97156.13
2023-04-02T04:12:12.330Z,97156.06
2023-04-02T04:15:22.766Z,97164.53
2023-04-02T04:18:35.089Z,97163.31
2023-04-02T04:21:45.049Z,97168.03
2023-04-02T04:25:00.219Z,97170.00
2023-04-02T04:28:16.610Z,97177.31
2023-04-02T04:31:30.926Z,97173.22
2023-04-02T04:34:46.746Z,97176.88
2023-04-02T04:37:59.949Z,97183.19
2023-04-02T04:41:14.404Z,97186.81
2023-04-02T04:44:23.835Z,97182.38
2023-04-02T04:47:36.746Z,97180.22
2023-04-02T04:50:49.093Z,97179.94
2023-04-02T04:53:56.278Z,97191.19
2023-04-02T04:57:07.028Z,97192.38
2023-04-02T05:00:19.002Z,97190.63
2023-04-02T05:03:31.828Z,97193.44
2023-04-02T05:06:41.599Z,97188.53
2023-04-02T05:09:53.749Z,97188.41
2023-04-02T05:13:05.729Z,97185.84
2023-04-02T05:16:18.455Z,97191.69
2023-04-02T05:19:29.281Z,97191.53
2023-04-02T05:22:41.376Z,97195.66
2023-04-02T05:25:56.349Z,97206.69
2023-04-02T05:29:07.528Z,97211.47
2023-04-02T05:32:19.794Z,97201.19
2023-04-02T05:35:30.174Z,97202.44
2023-04-02T05:38:36.863Z,97207.59
2023-04-02T05:41:44.320Z,97201.53
2023-04-02T05:45:02.072Z,97195.75
2023-04-02T05:48:17.721Z,97192.16
2023-04-02T05:51:27.327Z,97196.66
2023-04-02T05:54:38.338Z,97198.63
2023-04-02T05:58:01.267Z,97201.16
2023-04-02T06:01:34.725Z,97211.28
2023-04-02T06:04:49.721Z,97213.41
2023-04-02T06:07:58.607Z,97199.59
2023-04-02T06:11:09.398Z,97204.78
2023-04-02T06:14:16.542Z,97216.94
2023-04-02T06:17:23.009Z,97216.56
2023-04-02T06:20:26.969Z,97215.75
2023-04-02T06:23:38.428Z,97220.44
2023-04-02T06:26:49.255Z,97218.72
2023-04-02T06:29:59.690Z,97220.38
2023-04-02T06:33:09.014Z,97220.66
2023-04-02T06:36:14.060Z,97228.03
2023-04-02T06:39:20.452Z,97219.09
2023-04-02T06:42:29.572Z,97229.19
2023-04-02T06:45:56.737Z,97224.09
2023-04-02T06:49:23.885Z,97223.00
2023-04-02T06:52:37.508Z,97228.97
2023-04-02T06:55:48.940Z,97232.00
2023-04-02T06:58:57.596Z,97234.28
2023-04-02T07:02:06.672Z,97233.34
2023-04-02T07:05:12.960Z,97252.31
2023-04-02T07:08:22.438Z,97252.84
2023-04-02T07:11:26.250Z,97245.56
2023-04-02T07:14:32.940Z,97242.78
2023-04-02T07:17:36.749Z,97263.00
2023-04-02T07:20:42.929Z,97258.31
2023-04-02T07:23:50.281Z,97256.69
2023-04-02T07:26:54.342Z,97261.78
2023-04-02T07:29:57.945Z,97260.59
2023-04-02T07:33:01.885Z,97264.75
2023-04-02T07:36:07.527Z,97262.97
2023-04-02T07:39:12.395Z,97266.84
2023-04-02T07:42:15.865Z,97262.38
2023-04-02T07:45:20.128Z,97264.41
2023-04-02T07:48:24.128Z,97262.94
2023-04-02T07:51:29.716Z,97256.63
2023-04-02T07:54:33.581Z,97264.31
2023-04-02T07:57:43.105Z,97262.69
2023-04-02T08:00:47.927Z,97260.31
2023-04-02T08:03:54.306Z,97257.66
2023-04-02T08:06:59.722Z,97253.94
2023-04-02T08:10:03.835Z,97257.47
2023-04-02T08:13:07.283Z,97258.78
2023-04-02T08:16:11.451Z,97259.13
2023-04-02T08:19:18.056Z,97257.91
2023-04-02T08:22:23.393Z,97259.41
2023-04-02T08:25:26.904Z,97258.53
2023-04-02T08:28:48.945Z,97259.63
2023-04-02T08:31:52.649Z,97257.28
2023-04-02T08:34:56.424Z,97259.34
2023-04-02T08:38:01.485Z,97253.00
2023-04-02T08:41:06.399Z,97254.81
2023-04-02T08:44:32.377Z,97262.50
2023-04-02T08:47:38.176Z,97270.44
2023-04-02T08:50:43.803Z,97260.75
2023-04-02T08:53:49.357Z,97261.81
2023-04-02T08:56:58.144Z,97260.59
2023-04-02T09:00:22.054Z,97263.38
2023-04-02T09:03:31.906Z,97268.22
2023-04-02T09:06:37.122Z,97268.22
2023-04-02T09:09:42.196Z,97270.53
2023-04-02T09:12:49.405Z,97260.59
2023-04-02T09:15:57.575Z,97269.00
2023-04-02T09:19:23.738Z,97271.03
2023-04-02T09:22:29.434Z,97266.66
2023-04-02T09:25:35.160Z,97266.94
2023-04-02T09:28:39.624Z,97267.16
2023-04-02T09:31:47.575Z,97266.91
2023-04-02T09:34:51.177Z,97267.16
2023-04-02T09:38:31.587Z,97271.22
2023-04-02T09:41:37.466Z,97263.25
2023-04-02T09:44:41.417Z,97257.81
2023-04-02T09:47:44.975Z,97262.13
2023-04-02T09:50:48.742Z,97258.50
2023-04-02T09:54:07.044Z,97258.03
2023-04-02T09:57:23.975Z,97253.41
2023-04-02T10:00:32.223Z,97256.19
2023-04-02T10:03:36.894Z,97250.06
2023-04-02T10:06:53.949Z,97255.91
2023-04-02T10:09:59.803Z,97258.16
2023-04-02T10:13:09.414Z,97258.69
2023-04-02T10:16:18.556Z,97262.13
2023-04-02T10:19:30.783Z,97255.47
2023-04-02T10:22:34.892Z,97252.41
2023-04-02T10:25:46.636Z,97266.13
2023-04-02T10:29:07.044Z,97267.31
2023-04-02T10:32:16.521Z,97260.81
2023-04-02T10:35:31.633Z,97258.69
2023-04-02T10:38:47.780Z,97260.22
2023-04-02T10:41:57.484Z,97261.72
2023-04-02T10:45:17.801Z,97253.56
2023-04-02T10:48:28.036Z,97265.97
2023-04-02T10:51:40.497Z,97266.66
2023-04-02T10:54:49.858Z,97270.13
2023-04-02T10:57:57.177Z,97267.50
2023-04-02T11:01:09.461Z,97265.47
2023-04-02T11:04:20.951Z,97276.94
2023-04-02T11:07:30.198Z,97268.72
2023-04-02T11:10:38.588Z,97269.81
2023-04-02T11:13:51.453Z,97264.88
2023-04-02T11:16:59.250Z,97264.81
2023-04-02T11:20:36.381Z,97269.88
2023-04-02T11:23:57.814Z,97273.88
2023-04-02T11:27:25.930Z,97269.94
2023-04-02T11:30:29.664Z,97259.34
2023-04-02T11:33:47.307Z,97259.31
2023-04-02T11:37:03.630Z,97253.16
2023-04-02T11:40:45.738Z,97251.78
2023-04-02T11:44:02.697Z,97240.44
2023-04-02T11:47:17.461Z,97249.63
2023-04-02T11:50:33.038Z,97246.53
2023-04-02T11:53:37.664Z,97239.84
2023-04-02T11:56:49.123Z,97239.41
2023-04-02T12:00:12.178Z,97245.81
2023-04-02T12:03:41.813Z,97240.50
2023-04-02T12:06:59.942Z,97237.69
2023-04-02T12:10:06.908Z,97237.13
2023-04-02T12:13:19.663Z,97230.97
2023-04-02T12:16:24.387Z,97240.22
2023-04-02T12:19:31.085Z,97231.00
2023-04-02T12:22:39.145Z,97230.53
2023-04-02T12:25:46.505Z,97227.31
2023-04-02T12:28:50.020Z,97221.06
2023-04-02T12:31:55.949Z,97218.97
2023-04-02T12:35:01.670Z,97219.72
2023-04-02T12:38:07.488Z,97214.22
2023-04-02T12:41:24.421Z,97208.63
2023-04-02T12:44:30.204Z,97205.00
2023-04-02T12:47:34.478Z,97195.50
2023-04-02T12:50:41.950Z,97188.63
2023-04-02T12:53:51.560Z,97189.06
2023-04-02T12:56:56.698Z,97190.94
2023-04-02T13:00:06.589Z,97188.19
2023-04-02T13:03:20.045Z,97192.63
2023-04-02T13:06:27.070Z,97182.50
2023-04-02T13:09:37.122Z,97191.69
2023-04-02T13:12:42.100Z,97192.22
2023-04-02T13:15:46.286Z,97180.63
2023-04-02T13:18:51.493Z,97181.78
2023-04-02T13:21:57.150Z,97174.50
2023-04-02T13:25:01.852Z,97185.97
2023-04-02T13:28:05.804Z,97194.34
2023-04-02T13:31:16.223Z,97184.94
2023-04-02T13:34:20.015Z,97196.56
2023-04-02T13:37:23.505Z,97187.56
2023-04-02T13:40:28.820Z,97191.13
2023-04-02T13:43:32.372Z,97185.91
2023-04-02T13:46:38.584Z,97184.06
2023-04-02T13:49:43.694Z,97184.94
2023-04-02T13:52:52.284Z,97185.00
2023-04-02T13:55:57.992Z,97190.94
2023-04-02T13:59:01.915Z,97191.47
2023-04-02T14:02:10.667Z,97192.47
2023-04-02T14:05:30.255Z,97192.13
2023-04-02T14:08:51.610Z,97183.38
2023-04-02T14:12:07.138Z,97184.22
2023-04-02T14:15:23.980Z,97182.03
2023-04-02T14:18:47.349Z,97188.03
2023-04-02T14:22:02.623Z,97183.75
2023-04-02T14:25:17.145Z,97180.09
2023-04-02T14:28:30.173Z,97180.50
2023-04-02T14:31:38.051Z,97185.06
2023-04-02T14:34:48.930Z,97179.19
2023-04-02T14:38:05.069Z,97185.13
2023-04-02T14:41:14.981Z,97183.13
2023-04-02T14:44:24.190Z,97183.13
2023-04-02T14:47:35.275Z,97179.31
2023-04-02T14:50:41.552Z,97185.88
2023-04-02T14:53:53.936Z,97187.09
2023-04-02T14:57:02.959Z,97196.13
2023-04-02T15:00:21.778Z,97189.88
2023-04-02T15:03:30.242Z,97187.72
2023-04-02T15:06:39.072Z,97185.31
2023-04-02T15:09:50.626Z,97190.41
2023-04-02T15:12:56.336Z,97188.69
2023-04-02T15:16:11.020Z,97192.53
2023-04-02T15:19:17.939Z,97190.47
2023-04-02T15:22:35.872Z,97198.88
2023-04-02T15:25:49.009Z,97196.19
2023-04-02T15:29:02.516Z,97193.00
2023-04-02T15:32:24.137Z,97200.59
2023-04-02T15:35:37.964Z,97195.13
2023-04-02T15:38:46.031Z,97203.47
2023-04-02T15:42:01.297Z,97193.22
2023-04-02T15:45:23.294Z,97197.28
2023-04-02T15:48:57.343Z,97207.88
2023-04-02T15:52:09.374Z,97209.94
2023-04-02T15:55:23.705Z,97211.06
2023-04-02T15:58:43.997Z,97214.63
2023-04-02T16:01:59.438Z,97219.06
2023-04-02T16:05:15.084Z,97218.63
2023-04-02T16:08:36.476Z,97224.75
2023-04-02T16:11:40.412Z,97217.22
2023-04-02T16:14:46.124Z,97237.22
2023-04-02T16:17:56.321Z,97233.34
2023-04-02T16:21:04.106Z,97239.22
2023-04-02T16:24:12.189Z,97242.31
2023-04-02T16:27:27.330Z,97254.38
2023-04-02T16:30:51.180Z,97257.44
2023-04-02T16:34:06.319Z,97258.22
2023-04-02T16:37:23.471Z,97264.88
2023-04-02T16:40:38.083Z,97268.69
2023-04-02T16:43:51.494Z,97279.97
2023-04-02T16:47:04.272Z,97280.97
2023-04-02T16:50:18.351Z,97292.22
2023-04-02T16:53:31.806Z,97289.41
2023-04-02T16:56:46.783Z,97284.03
2023-04-02T17:00:02.197Z,97292.19
2023-04-02T17:03:21.321Z,97287.59
2023-04-02T17:06:36.963Z,97285.56
2023-04-02T17:09:50.087Z,97281.22
2023-04-02T17:13:03.544Z,97287.63
2023-04-02T17:16:18.061Z,97289.66
2023-04-02T17:19:22.840Z,97294.78
2023-04-02T17:22:26.279Z,97301.66
2023-04-02T17:25:36.180Z,97311.84
2023-04-02T17:28:40.884Z,97316.44
2023-04-02T17:31:46.842Z,97325.34
2023-04-02T17:34:50.392Z,97328.63
2023-04-02T17:38:01.222Z,97333.97
2023-04-02T17:41:14.202Z,97333.16
2023-04-02T17:44:34.121Z,97338.16
2023-04-02T17:47:47.425Z,97344.41
2023-04-02T17:51:10.812Z,97348.75
2023-04-02T17:54:33.206Z,97347.66
2023-04-02T17:57:50.094Z,97346.78
2023-04-02T18:01:03.908Z,97347.88
2023-04-02T18:04:31.110Z,97361.59
2023-04-02T18:07:46.921Z,97370.72
2023-04-02T18:11:03.765Z,97367.88
2023-04-02T18:14:28.381Z,97374.25
2023-04-02T18:17:43.729Z,97371.47
2023-04-02T18:20:58.231Z,97377.59
2023-04-02T18:24:26.106Z,97377.34
2023-04-02T18:27:46.554Z,97380.28
2023-04-02T18:30:59.725Z,97373.38
2023-04-02T18:34:32.065Z,97373.28
2023-04-02T18:37:45.083Z,97374.97
2023-04-02T18:41:03.841Z,97383.25
2023-04-02T18:44:21.287Z,97382.38
2023-04-02T18:47:31.673Z,97391.78
2023-04-02T18:50:37.804Z,97396.13
2023-04-02T18:53:43.412Z,97397.50
2023-04-02T18:56:47.135Z,97409.22
2023-04-02T18:59:55.712Z,97415.91
2023-04-02T19:03:06.347Z,97414.97
2023-04-02T19:06:14.553Z,97416.69
2023-04-02T19:09:23.375Z,97422.69
2023-04-02T19:12:26.804Z,97421.38
2023-04-02T19:15:39.756Z,97425.28
2023-04-02T19:18:57.206Z,97419.63
2023-04-02T19:22:13.599Z,97423.63
2023-04-02T19:25:31.567Z,97424.97
2023-04-02T19:28:44.547Z,97425.94
2023-04-02T19:31:56.271Z,97426.47
2023-04-02T19:35:08.798Z,97427.84
2023-04-02T19:38:29.797Z,97432.31
2023-04-02T19:41:41.412Z,97433.06
2023-04-02T19:44:49.730Z,97423.31
2023-04-02T19:47:54.414Z,97436.28
2023-04-02T19:50:59.527Z,97434.19
2023-04-02T19:54:04.890Z,97431.22
2023-04-02T19:57:14.786Z,97432.59
2023-04-02T20:00:20.205Z,97442.13
2023-04-02T20:03:25.530Z,97447.88
2023-04-02T20:06:32.905Z,97451.31
2023-04-02T20:09:36.529Z,97452.50
2023-04-02T20:12:41.072Z,97453.34
2023-04-02T20:15:44.631Z,97459.22
2023-04-02T20:18:49.333Z,97459.69
2023-04-02T20:21:54.556Z,97462.97
2023-04-02T20:24:58.868Z,97459.69
2023-04-02T20:28:04.084Z,97450.66
2023-04-02T20:31:10.172Z,97459.38
2023-04-02T20:34:13.971Z,97467.16
2023-04-02T20:37:19.370Z,97460.44
2023-04-02T20:40:22.891Z,97455.22
2023-04-02T20:43:26.920Z,97463.38
2023-04-02T20:46:30.411Z,97456.03
2023-04-02T20:49:34.813Z,97461.59
2023-04-02T20:52:39.876Z,97452.78
2023-04-02T20:55:43.887Z,97466.28
2023-04-02T20:58:47.401Z,97461.03
2023-04-02T21:01:51.940Z,97467.28
2023-04-02T21:04:56.418Z,97459.22
2023-04-02T21:08:02.455Z,97477.03
2023-04-02T21:11:07.254Z,97473.03
2023-04-02T21:14:11.278Z,97481.38
2023-04-02T21:17:16.071Z,97478.53
2023-04-02T21:20:19.904Z,97477.47
2023-04-02T21:23:24.925Z,97476.53
2023-04-02T21:26:31.311Z,97483.63
2023-04-02T21:29:35.988Z,97483.69
2023-04-02T21:32:39.826Z,97487.41
2023-04-02T21:35:43.461Z,97489.59
2023-04-02T21:38:50.810Z,97485.34
2023-04-02T21:41:54.893Z,97496.47
2023-04-02T21:44:59.230Z,97491.69
2023-04-02T21:48:02.855Z,97495.34
2023-04-02T21:51:11.900Z,97497.78
2023-04-02T21:54:16.788Z,97497.34
2023-04-02T21:57:20.644Z,97494.00
2023-04-02T22:00:24.149Z,97491.34
2023-04-02T22:03:31.741Z,97498.78
2023-04-02T22:06:38.934Z,97507.06
2023-04-02T22:09:44.551Z,97499.31
2023-04-02T22:12:48.411Z,97497.38
2023-04-02T22:15:52.250Z,97503.94
2023-04-02T22:18:57.157Z,97496.34
2023-04-02T22:22:01.309Z,97504.50
2023-04-02T22:25:07.400Z,97500.34
2023-04-02T22:28:11.308Z,97501.50
2023-04-02T22:31:16.716Z,97498.66
2023-04-02T22:34:21.071Z,97496.25
2023-04-02T22:37:43.493Z,97497.69
2023-04-02T22:40:48.355Z,97489.66
2023-04-02T22:43:52.846Z,97494.09
2023-04-02T22:46:56.751Z,97491.25
2023-04-02T22:50:00.699Z,97484.53
2023-04-02T22:53:04.575Z,97487.59
2023-04-02T22:56:12.455Z,97488.53
2023-04-02T22:59:16.263Z,97489.16
2023-04-02T23:02:20.828Z,97488.38
2023-04-02T23:05:24.444Z,97477.94
2023-04-02T23:08:28.704Z,97481.91
2023-04-02T23:11:33.820Z,97480.44
2023-04-02T23:14:37.661Z,97479.53
2023-04-02T23:17:41.173Z,97471.38
2023-04-02T23:20:45.050Z,97472.91
2023-04-02T23:23:49.299Z,97465.88
2023-04-02T23:26:54.385Z,97464.31
2023-04-02T23:29:57.852Z,97456.44
2023-04-02T23:33:03.483Z,97463.69
2023-04-02T23:36:09.668Z,97463.31
2023-04-02T23:39:15.158Z,97461.66
2023-04-02T23:42:20.228Z,97466.38
2023-04-02T23:45:24.344Z,97462.69
2023-04-02T23:48:27.877Z,97460.22
2023-04-02T23:51:32.525Z,97457.91
2023-04-02T23:54:36.163Z,97466.75
2023-04-02T23:57:41.647Z,97455.84
